sensor_id;sensor_type;location;lat;lon;timestamp;P1;durP1;ratioP1;P2;durP2;ratioP2
42846;SDS011;28495;49.916;14.536;2022-10-17T00:04:40;9.30;;;6.00;;
42846;SDS011;28495;49.916;14.536;2022-10-17T00:10:01;8.18;;;5.75;;
42846;SDS011;28495;49.916;14.536;2022-10-17T00:15:22;13.23;;;6.50;;
42846;SDS011;28495;49.916;14.536;2022-10-17T00:20:42;14.13;;;7.15;;
42846;SDS011;28495;49.916;14.536;2022-10-17T00:26:04;9.65;;;6.80;;
42846;SDS011;28495;49.916;14.536;2022-10-17T00:31:25;12.35;;;6.32;;
42846;SDS011;28495;49.916;14.536;2022-10-17T00:36:46;10.80;;;6.57;;
42846;SDS011;28495;49.916;14.536;2022-10-17T00:42:09;11.15;;;6.05;;
42846;SDS011;28495;49.916;14.536;2022-10-17T00:47:32;9.40;;;6.45;;
42846;SDS011;28495;49.916;14.536;2022-10-17T00:52:54;13.45;;;6.82;;
42846;SDS011;28495;49.916;14.536;2022-10-17T00:58:20;9.35;;;6.63;;
42846;SDS011;28495;49.916;14.536;2022-10-17T01:03:41;11.32;;;6.75;;
42846;SDS011;28495;49.916;14.536;2022-10-17T01:09:02;12.98;;;6.43;;
42846;SDS011;28495;49.916;14.536;2022-10-17T01:14:31;12.65;;;5.97;;
42846;SDS011;28495;49.916;14.536;2022-10-17T01:25:45;11.77;;;7.28;;
42846;SDS011;28495;49.916;14.536;2022-10-17T01:31:13;15.05;;;7.22;;
42846;SDS011;28495;49.916;14.536;2022-10-17T01:36:48;10.40;;;6.88;;
42846;SDS011;28495;49.916;14.536;2022-10-17T01:42:23;12.98;;;7.45;;
42846;SDS011;28495;49.916;14.536;2022-10-17T01:47:51;15.18;;;7.97;;
42846;SDS011;28495;49.916;14.536;2022-10-17T01:53:15;8.48;;;6.32;;
42846;SDS011;28495;49.916;14.536;2022-10-17T01:58:50;8.90;;;6.30;;
42846;SDS011;28495;49.916;14.536;2022-10-17T02:04:16;10.07;;;7.13;;
42846;SDS011;28495;49.916;14.536;2022-10-17T02:09:38;11.95;;;7.65;;
42846;SDS011;28495;49.916;14.536;2022-10-17T02:20:24;11.15;;;8.00;;
42846;SDS011;28495;49.916;14.536;2022-10-17T02:32:04;14.05;;;8.48;;
42846;SDS011;28495;49.916;14.536;2022-10-17T02:37:26;16.38;;;9.68;;
42846;SDS011;28495;49.916;14.536;2022-10-17T02:42:50;15.38;;;9.85;;
42846;SDS011;28495;49.916;14.536;2022-10-17T02:48:15;20.05;;;9.77;;
42846;SDS011;28495;49.916;14.536;2022-10-17T03:04:48;13.82;;;9.50;;
42846;SDS011;28495;49.916;14.536;2022-10-17T03:10:08;14.95;;;10.35;;
42846;SDS011;28495;49.916;14.536;2022-10-17T03:15:30;16.83;;;11.10;;
42846;SDS011;28495;49.916;14.536;2022-10-17T03:20:51;17.33;;;11.40;;
42846;SDS011;28495;49.916;14.536;2022-10-17T03:26:12;14.80;;;9.98;;
42846;SDS011;28495;49.916;14.536;2022-10-17T03:31:33;15.88;;;10.75;;
42846;SDS011;28495;49.916;14.536;2022-10-17T03:36:55;15.15;;;10.25;;
42846;SDS011;28495;49.916;14.536;2022-10-17T03:42:17;20.20;;;11.85;;
42846;SDS011;28495;49.916;14.536;2022-10-17T03:47:38;17.70;;;11.30;;
42846;SDS011;28495;49.916;14.536;2022-10-17T03:52:59;17.45;;;11.93;;
42846;SDS011;28495;49.916;14.536;2022-10-17T03:58:20;21.05;;;12.40;;
42846;SDS011;28495;49.916;14.536;2022-10-17T04:03:42;18.20;;;12.35;;
42846;SDS011;28495;49.916;14.536;2022-10-17T04:09:04;19.42;;;12.15;;
42846;SDS011;28495;49.916;14.536;2022-10-17T04:14:34;18.65;;;11.68;;
42846;SDS011;28495;49.916;14.536;2022-10-17T04:19:56;22.02;;;13.02;;
42846;SDS011;28495;49.916;14.536;2022-10-17T04:25:17;23.60;;;12.38;;
42846;SDS011;28495;49.916;14.536;2022-10-17T04:30:38;21.52;;;13.50;;
42846;SDS011;28495;49.916;14.536;2022-10-17T04:36:06;22.58;;;13.48;;
42846;SDS011;28495;49.916;14.536;2022-10-17T04:41:31;23.95;;;14.95;;
42846;SDS011;28495;49.916;14.536;2022-10-17T04:46:51;26.20;;;15.10;;
42846;SDS011;28495;49.916;14.536;2022-10-17T04:52:12;23.48;;;15.63;;
42846;SDS011;28495;49.916;14.536;2022-10-17T04:57:35;24.95;;;15.43;;
42846;SDS011;28495;49.916;14.536;2022-10-17T05:03:04;29.70;;;17.87;;
42846;SDS011;28495;49.916;14.536;2022-10-17T05:08:25;27.13;;;16.80;;
42846;SDS011;28495;49.916;14.536;2022-10-17T05:13:50;30.02;;;17.08;;
42846;SDS011;28495;49.916;14.536;2022-10-17T05:19:16;30.08;;;17.10;;
42846;SDS011;28495;49.916;14.536;2022-10-17T05:24:41;30.23;;;17.52;;
42846;SDS011;28495;49.916;14.536;2022-10-17T05:30:03;24.08;;;16.15;;
42846;SDS011;28495;49.916;14.536;2022-10-17T05:35:27;23.25;;;15.13;;
42846;SDS011;28495;49.916;14.536;2022-10-17T05:40:48;26.85;;;16.08;;
42846;SDS011;28495;49.916;14.536;2022-10-17T05:46:09;25.10;;;16.52;;
42846;SDS011;28495;49.916;14.536;2022-10-17T05:51:34;26.77;;;16.70;;
42846;SDS011;28495;49.916;14.536;2022-10-17T05:56:56;26.70;;;17.15;;
42846;SDS011;28495;49.916;14.536;2022-10-17T06:02:21;29.70;;;18.08;;
42846;SDS011;28495;49.916;14.536;2022-10-17T06:07:42;20.92;;;14.27;;
42846;SDS011;28495;49.916;14.536;2022-10-17T06:13:05;22.55;;;14.95;;
42846;SDS011;28495;49.916;14.536;2022-10-17T06:18:27;29.25;;;17.92;;
42846;SDS011;28495;49.916;14.536;2022-10-17T06:23:47;30.27;;;17.52;;
42846;SDS011;28495;49.916;14.536;2022-10-17T06:29:18;32.15;;;17.63;;
42846;SDS011;28495;49.916;14.536;2022-10-17T06:34:42;34.47;;;19.40;;
42846;SDS011;28495;49.916;14.536;2022-10-17T06:40:04;30.50;;;18.08;;
42846;SDS011;28495;49.916;14.536;2022-10-17T06:45:29;30.05;;;18.95;;
42846;SDS011;28495;49.916;14.536;2022-10-17T06:51:09;34.00;;;19.77;;
42846;SDS011;28495;49.916;14.536;2022-10-17T06:56:42;33.25;;;19.58;;
42846;SDS011;28495;49.916;14.536;2022-10-17T07:02:21;32.15;;;19.88;;
42846;SDS011;28495;49.916;14.536;2022-10-17T07:07:44;28.73;;;19.00;;
42846;SDS011;28495;49.916;14.536;2022-10-17T07:13:09;36.25;;;20.45;;
42846;SDS011;28495;49.916;14.536;2022-10-17T07:18:30;26.23;;;16.63;;
42846;SDS011;28495;49.916;14.536;2022-10-17T07:23:51;31.13;;;19.95;;
42846;SDS011;28495;49.916;14.536;2022-10-17T07:29:13;29.27;;;18.65;;
42846;SDS011;28495;49.916;14.536;2022-10-17T07:34:59;32.63;;;19.58;;
42846;SDS011;28495;49.916;14.536;2022-10-17T07:40:20;34.38;;;19.73;;
42846;SDS011;28495;49.916;14.536;2022-10-17T07:45:41;31.02;;;17.15;;
42846;SDS011;28495;49.916;14.536;2022-10-17T07:51:02;28.55;;;17.20;;
42846;SDS011;28495;49.916;14.536;2022-10-17T07:56:24;29.75;;;18.63;;
42846;SDS011;28495;49.916;14.536;2022-10-17T08:01:46;29.30;;;18.33;;
42846;SDS011;28495;49.916;14.536;2022-10-17T08:07:07;27.80;;;17.52;;
42846;SDS011;28495;49.916;14.536;2022-10-17T08:12:43;26.95;;;17.83;;
42846;SDS011;28495;49.916;14.536;2022-10-17T08:18:04;34.92;;;20.65;;
42846;SDS011;28495;49.916;14.536;2022-10-17T08:23:24;30.33;;;17.85;;
42846;SDS011;28495;49.916;14.536;2022-10-17T08:28:46;26.65;;;17.42;;
42846;SDS011;28495;49.916;14.536;2022-10-17T08:34:07;26.92;;;17.00;;
42846;SDS011;28495;49.916;14.536;2022-10-17T08:39:27;27.98;;;17.60;;
42846;SDS011;28495;49.916;14.536;2022-10-17T08:50:39;26.17;;;15.95;;
42846;SDS011;28495;49.916;14.536;2022-10-17T08:56:06;27.35;;;16.65;;
42846;SDS011;28495;49.916;14.536;2022-10-17T09:02:00;24.08;;;13.55;;
42846;SDS011;28495;49.916;14.536;2022-10-17T09:18:52;20.23;;;13.13;;
42846;SDS011;28495;49.916;14.536;2022-10-17T09:24:52;25.95;;;14.30;;
42846;SDS011;28495;49.916;14.536;2022-10-17T09:36:07;20.20;;;13.40;;
42846;SDS011;28495;49.916;14.536;2022-10-17T09:41:50;18.90;;;13.10;;
42846;SDS011;28495;49.916;14.536;2022-10-17T09:52:40;22.02;;;14.13;;
42846;SDS011;28495;49.916;14.536;2022-10-17T09:58:07;17.98;;;11.45;;
42846;SDS011;28495;49.916;14.536;2022-10-17T10:03:29;20.85;;;13.25;;
42846;SDS011;28495;49.916;14.536;2022-10-17T10:14:18;19.13;;;11.95;;
42846;SDS011;28495;49.916;14.536;2022-10-17T10:25:15;20.70;;;13.18;;
42846;SDS011;28495;49.916;14.536;2022-10-17T10:30:37;17.83;;;11.80;;
42846;SDS011;28495;49.916;14.536;2022-10-17T10:36:00;17.63;;;11.45;;
42846;SDS011;28495;49.916;14.536;2022-10-17T10:41:23;21.20;;;13.20;;
42846;SDS011;28495;49.916;14.536;2022-10-17T10:46:46;18.70;;;12.10;;
42846;SDS011;28495;49.916;14.536;2022-10-17T10:52:09;17.25;;;11.27;;
42846;SDS011;28495;49.916;14.536;2022-10-17T10:57:39;20.50;;;12.48;;
42846;SDS011;28495;49.916;14.536;2022-10-17T11:15:06;19.50;;;11.93;;
42846;SDS011;28495;49.916;14.536;2022-10-17T11:20:43;16.17;;;10.32;;
42846;SDS011;28495;49.916;14.536;2022-10-17T11:26:25;16.83;;;11.40;;
42846;SDS011;28495;49.916;14.536;2022-10-17T11:31:49;16.02;;;10.73;;
42846;SDS011;28495;49.916;14.536;2022-10-17T11:37:16;17.45;;;10.27;;
42846;SDS011;28495;49.916;14.536;2022-10-17T11:42:51;14.75;;;9.65;;
42846;SDS011;28495;49.916;14.536;2022-10-17T11:48:20;17.80;;;10.75;;
42846;SDS011;28495;49.916;14.536;2022-10-17T12:11:49;14.60;;;9.82;;
42846;SDS011;28495;49.916;14.536;2022-10-17T12:17:30;13.70;;;9.80;;
42846;SDS011;28495;49.916;14.536;2022-10-17T12:33:57;15.00;;;9.90;;
42846;SDS011;28495;49.916;14.536;2022-10-17T12:44:43;17.45;;;10.40;;
42846;SDS011;28495;49.916;14.536;2022-10-17T12:56:44;15.55;;;10.32;;
42846;SDS011;28495;49.916;14.536;2022-10-17T13:02:08;12.40;;;8.43;;
42846;SDS011;28495;49.916;14.536;2022-10-17T13:07:48;15.88;;;9.70;;
42846;SDS011;28495;49.916;14.536;2022-10-17T13:18:39;14.68;;;9.02;;
42846;SDS011;28495;49.916;14.536;2022-10-17T13:24:00;17.30;;;9.60;;
42846;SDS011;28495;49.916;14.536;2022-10-17T13:29:20;14.68;;;9.25;;
42846;SDS011;28495;49.916;14.536;2022-10-17T13:34:45;15.15;;;9.65;;
42846;SDS011;28495;49.916;14.536;2022-10-17T13:40:06;16.08;;;8.85;;
42846;SDS011;28495;49.916;14.536;2022-10-17T13:45:55;16.65;;;9.88;;
42846;SDS011;28495;49.916;14.536;2022-10-17T13:51:47;13.35;;;9.13;;
42846;SDS011;28495;49.916;14.536;2022-10-17T13:57:27;13.00;;;9.07;;
42846;SDS011;28495;49.916;14.536;2022-10-17T14:02:50;14.38;;;9.20;;
42846;SDS011;28495;49.916;14.536;2022-10-17T14:08:12;15.10;;;9.27;;
42846;SDS011;28495;49.916;14.536;2022-10-17T14:13:46;15.10;;;8.98;;
42846;SDS011;28495;49.916;14.536;2022-10-17T14:24:45;16.17;;;9.70;;
42846;SDS011;28495;49.916;14.536;2022-10-17T14:30:29;16.00;;;9.50;;
42846;SDS011;28495;49.916;14.536;2022-10-17T14:36:12;14.32;;;9.25;;
42846;SDS011;28495;49.916;14.536;2022-10-17T14:41:34;21.08;;;9.73;;
42846;SDS011;28495;49.916;14.536;2022-10-17T14:47:03;17.25;;;9.55;;
42846;SDS011;28495;49.916;14.536;2022-10-17T14:52:59;16.40;;;9.60;;
42846;SDS011;28495;49.916;14.536;2022-10-17T14:58:23;19.70;;;10.25;;
42846;SDS011;28495;49.916;14.536;2022-10-17T15:03:47;17.27;;;9.60;;
42846;SDS011;28495;49.916;14.536;2022-10-17T15:09:08;18.52;;;10.38;;
42846;SDS011;28495;49.916;14.536;2022-10-17T15:14:30;16.02;;;9.65;;
42846;SDS011;28495;49.916;14.536;2022-10-17T15:19:51;14.13;;;8.50;;
42846;SDS011;28495;49.916;14.536;2022-10-17T15:25:12;12.52;;;8.57;;
42846;SDS011;28495;49.916;14.536;2022-10-17T15:30:34;17.27;;;8.48;;
42846;SDS011;28495;49.916;14.536;2022-10-17T15:35:56;14.45;;;7.93;;
42846;SDS011;28495;49.916;14.536;2022-10-17T15:41:18;14.98;;;8.90;;
42846;SDS011;28495;49.916;14.536;2022-10-17T15:46:39;11.15;;;7.75;;
42846;SDS011;28495;49.916;14.536;2022-10-17T15:52:02;14.65;;;7.70;;
42846;SDS011;28495;49.916;14.536;2022-10-17T15:57:26;11.50;;;7.32;;
42846;SDS011;28495;49.916;14.536;2022-10-17T16:02:49;11.80;;;8.15;;
42846;SDS011;28495;49.916;14.536;2022-10-17T16:08:10;15.25;;;7.53;;
42846;SDS011;28495;49.916;14.536;2022-10-17T16:13:31;26.35;;;11.40;;
42846;SDS011;28495;49.916;14.536;2022-10-17T16:18:52;31.55;;;12.10;;
42846;SDS011;28495;49.916;14.536;2022-10-17T16:24:13;18.42;;;9.20;;
42846;SDS011;28495;49.916;14.536;2022-10-17T16:29:34;13.05;;;8.77;;
42846;SDS011;28495;49.916;14.536;2022-10-17T16:34:54;13.18;;;8.02;;
42846;SDS011;28495;49.916;14.536;2022-10-17T16:40:15;15.75;;;8.15;;
42846;SDS011;28495;49.916;14.536;2022-10-17T16:45:36;14.23;;;8.52;;
42846;SDS011;28495;49.916;14.536;2022-10-17T16:50:57;13.75;;;8.10;;
42846;SDS011;28495;49.916;14.536;2022-10-17T16:56:18;16.08;;;8.85;;
42846;SDS011;28495;49.916;14.536;2022-10-17T17:01:40;11.55;;;8.32;;
42846;SDS011;28495;49.916;14.536;2022-10-17T17:07:01;13.15;;;8.52;;
42846;SDS011;28495;49.916;14.536;2022-10-17T17:12:22;14.70;;;8.80;;
42846;SDS011;28495;49.916;14.536;2022-10-17T17:17:43;12.85;;;8.30;;
42846;SDS011;28495;49.916;14.536;2022-10-17T17:23:13;16.42;;;6.90;;
42846;SDS011;28495;49.916;14.536;2022-10-17T17:28:35;16.17;;;9.40;;
42846;SDS011;28495;49.916;14.536;2022-10-17T17:33:56;18.10;;;10.07;;
42846;SDS011;28495;49.916;14.536;2022-10-17T17:39:18;17.58;;;9.57;;
42846;SDS011;28495;49.916;14.536;2022-10-17T17:44:38;15.07;;;9.43;;
42846;SDS011;28495;49.916;14.536;2022-10-17T17:49:59;18.02;;;9.73;;
42846;SDS011;28495;49.916;14.536;2022-10-17T17:55:22;14.45;;;9.63;;
42846;SDS011;28495;49.916;14.536;2022-10-17T18:00:43;15.95;;;9.70;;
42846;SDS011;28495;49.916;14.536;2022-10-17T18:06:04;14.80;;;9.00;;
42846;SDS011;28495;49.916;14.536;2022-10-17T18:11:27;19.15;;;9.50;;
42846;SDS011;28495;49.916;14.536;2022-10-17T18:16:48;13.82;;;7.90;;
42846;SDS011;28495;49.916;14.536;2022-10-17T18:22:09;15.40;;;9.00;;
42846;SDS011;28495;49.916;14.536;2022-10-17T18:27:30;16.20;;;9.55;;
42846;SDS011;28495;49.916;14.536;2022-10-17T18:32:52;16.15;;;9.50;;
42846;SDS011;28495;49.916;14.536;2022-10-17T18:38:12;16.08;;;9.98;;
42846;SDS011;28495;49.916;14.536;2022-10-17T18:43:34;16.92;;;10.32;;
42846;SDS011;28495;49.916;14.536;2022-10-17T18:48:57;13.57;;;9.70;;
42846;SDS011;28495;49.916;14.536;2022-10-17T18:54:18;17.10;;;9.48;;
42846;SDS011;28495;49.916;14.536;2022-10-17T18:59:40;12.55;;;8.75;;
42846;SDS011;28495;49.916;14.536;2022-10-17T19:05:02;15.60;;;8.88;;
42846;SDS011;28495;49.916;14.536;2022-10-17T19:10:23;15.07;;;9.35;;
42846;SDS011;28495;49.916;14.536;2022-10-17T19:15:45;15.70;;;10.75;;
42846;SDS011;28495;49.916;14.536;2022-10-17T19:21:06;18.80;;;11.50;;
42846;SDS011;28495;49.916;14.536;2022-10-17T19:26:30;19.65;;;12.05;;
42846;SDS011;28495;49.916;14.536;2022-10-17T19:31:54;22.15;;;16.23;;
42846;SDS011;28495;49.916;14.536;2022-10-17T19:37:15;25.85;;;13.77;;
42846;SDS011;28495;49.916;14.536;2022-10-17T19:42:35;21.60;;;12.65;;
42846;SDS011;28495;49.916;14.536;2022-10-17T19:47:56;25.35;;;13.15;;
42846;SDS011;28495;49.916;14.536;2022-10-17T19:53:16;19.15;;;12.45;;
42846;SDS011;28495;49.916;14.536;2022-10-17T19:58:37;21.33;;;13.38;;
42846;SDS011;28495;49.916;14.536;2022-10-17T20:04:06;37.47;;;19.05;;
42846;SDS011;28495;49.916;14.536;2022-10-17T20:09:28;39.50;;;17.58;;
42846;SDS011;28495;49.916;14.536;2022-10-17T20:14:48;27.38;;;15.18;;
42846;SDS011;28495;49.916;14.536;2022-10-17T20:20:09;24.02;;;13.95;;
42846;SDS011;28495;49.916;14.536;2022-10-17T20:25:30;21.38;;;14.65;;
42846;SDS011;28495;49.916;14.536;2022-10-17T20:30:56;19.63;;;11.40;;
42846;SDS011;28495;49.916;14.536;2022-10-17T20:36:17;24.65;;;11.60;;
42846;SDS011;28495;49.916;14.536;2022-10-17T20:41:43;17.08;;;11.60;;
42846;SDS011;28495;49.916;14.536;2022-10-17T20:47:05;22.73;;;11.55;;
42846;SDS011;28495;49.916;14.536;2022-10-17T20:52:45;22.73;;;12.15;;
42846;SDS011;28495;49.916;14.536;2022-10-17T20:58:09;16.00;;;9.98;;
42846;SDS011;28495;49.916;14.536;2022-10-17T21:03:31;14.48;;;10.70;;
42846;SDS011;28495;49.916;14.536;2022-10-17T21:08:55;17.55;;;10.90;;
42846;SDS011;28495;49.916;14.536;2022-10-17T21:14:16;21.38;;;11.95;;
42846;SDS011;28495;49.916;14.536;2022-10-17T21:19:40;20.60;;;11.32;;
42846;SDS011;28495;49.916;14.536;2022-10-17T21:25:01;21.15;;;12.52;;
42846;SDS011;28495;49.916;14.536;2022-10-17T21:30:22;20.67;;;13.15;;
42846;SDS011;28495;49.916;14.536;2022-10-17T21:35:43;17.95;;;11.48;;
42846;SDS011;28495;49.916;14.536;2022-10-17T21:41:04;17.70;;;12.27;;
42846;SDS011;28495;49.916;14.536;2022-10-17T21:46:26;22.88;;;11.82;;
42846;SDS011;28495;49.916;14.536;2022-10-17T21:51:48;17.80;;;11.25;;
42846;SDS011;28495;49.916;14.536;2022-10-17T21:57:10;16.55;;;11.15;;
42846;SDS011;28495;49.916;14.536;2022-10-17T22:02:30;18.25;;;11.50;;
42846;SDS011;28495;49.916;14.536;2022-10-17T22:07:52;19.25;;;11.52;;
42846;SDS011;28495;49.916;14.536;2022-10-17T22:13:12;17.05;;;10.52;;
42846;SDS011;28495;49.916;14.536;2022-10-17T22:18:33;22.23;;;11.30;;
42846;SDS011;28495;49.916;14.536;2022-10-17T22:24:05;16.35;;;10.40;;
42846;SDS011;28495;49.916;14.536;2022-10-17T22:29:27;19.00;;;12.00;;
42846;SDS011;28495;49.916;14.536;2022-10-17T22:34:48;18.85;;;10.15;;
42846;SDS011;28495;49.916;14.536;2022-10-17T22:40:09;19.65;;;11.98;;
42846;SDS011;28495;49.916;14.536;2022-10-17T22:45:30;17.67;;;11.82;;
42846;SDS011;28495;49.916;14.536;2022-10-17T22:50:51;22.10;;;12.80;;
42846;SDS011;28495;49.916;14.536;2022-10-17T22:56:17;22.63;;;13.05;;
42846;SDS011;28495;49.916;14.536;2022-10-17T23:01:39;23.45;;;11.75;;
42846;SDS011;28495;49.916;14.536;2022-10-17T23:07:00;21.83;;;12.98;;
42846;SDS011;28495;49.916;14.536;2022-10-17T23:12:21;18.48;;;12.13;;
42846;SDS011;28495;49.916;14.536;2022-10-17T23:17:42;19.55;;;13.05;;
42846;SDS011;28495;49.916;14.536;2022-10-17T23:23:02;18.55;;;11.90;;
42846;SDS011;28495;49.916;14.536;2022-10-17T23:28:23;19.02;;;11.85;;
42846;SDS011;28495;49.916;14.536;2022-10-17T23:33:45;20.00;;;12.73;;
42846;SDS011;28495;49.916;14.536;2022-10-17T23:39:07;19.13;;;12.52;;
42846;SDS011;28495;49.916;14.536;2022-10-17T23:44:28;18.83;;;11.63;;
42846;SDS011;28495;49.916;14.536;2022-10-17T23:49:48;19.45;;;11.80;;
42846;SDS011;28495;49.916;14.536;2022-10-17T23:55:09;18.02;;;11.43;;
